createdAt,value
2022-09-12T00:03:02.065Z,17.73
2022-09-12T00:05:54.402Z,17.67
2022-09-12T00:08:26.115Z,17.67
2022-09-12T00:11:18.770Z,17.80
2022-09-12T00:14:11.203Z,17.88
2022-09-12T00:17:04.290Z,17.84
2022-09-12T00:19:56.878Z,17.79
2022-09-12T00:22:48.955Z,17.76
2022-09-12T00:25:46.268Z,17.73
2022-09-12T00:28:40.688Z,17.68
2022-09-12T00:31:27.820Z,17.68
2022-09-12T00:34:20.039Z,17.70
2022-09-12T00:37:02.958Z,17.36
2022-09-12T00:39:55.140Z,16.30
2022-09-12T00:42:47.392Z,15.38
2022-09-12T00:45:39.500Z,15.06
2022-09-12T00:48:36.454Z,15.89
2022-09-12T00:51:30.601Z,16.76
2022-09-12T00:54:20.469Z,17.12
2022-09-12T00:57:15.285Z,17.43
2022-09-12T01:00:14.508Z,17.67
2022-09-12T01:03:01.159Z,17.48
2022-09-12T01:06:00.924Z,16.33
2022-09-12T01:08:55.795Z,15.29
2022-09-12T01:11:49.698Z,14.91
2022-09-12T01:14:42.097Z,15.75
2022-09-12T01:17:41.463Z,16.45
2022-09-12T01:20:52.097Z,16.82
2022-09-12T01:24:10.966Z,16.98
2022-09-12T01:27:34.655Z,17.14
2022-09-12T01:30:23.696Z,17.20
2022-09-12T01:33:32.743Z,17.21
2022-09-12T01:36:33.661Z,17.16
2022-09-12T01:39:28.106Z,17.09
2022-09-12T01:42:28.000Z,16.99
2022-09-12T01:45:27.840Z,17.05
2022-09-12T01:48:24.140Z,17.15
2022-09-12T01:51:22.869Z,16.87
2022-09-12T01:54:12.138Z,15.76
2022-09-12T01:56:58.044Z,14.76
2022-09-12T01:59:56.534Z,14.26
2022-09-12T02:02:33.933Z,15.06
2022-09-12T02:05:22.265Z,15.81
2022-09-12T02:08:18.875Z,16.14
2022-09-12T02:11:13.420Z,16.30
2022-09-12T02:14:08.448Z,16.37
2022-09-12T02:17:07.523Z,16.37
2022-09-12T02:20:04.258Z,16.40
2022-09-12T02:22:58.905Z,16.44
2022-09-12T02:25:54.845Z,16.48
2022-09-12T02:28:47.657Z,16.48
2022-09-12T02:31:46.026Z,16.41
2022-09-12T02:34:49.584Z,16.33
2022-09-12T02:37:54.809Z,16.54
2022-09-12T02:40:47.193Z,16.76
2022-09-12T02:43:40.609Z,16.75
2022-09-12T02:46:29.949Z,15.89
2022-09-12T02:49:23.337Z,14.81
2022-09-12T02:52:16.126Z,14.44
2022-09-12T02:54:58.859Z,15.18
2022-09-12T02:57:50.982Z,15.74
2022-09-12T03:00:49.660Z,16.15
2022-09-12T03:03:59.612Z,16.49
2022-09-12T03:07:03.275Z,16.67
2022-09-12T03:09:50.493Z,16.69
2022-09-12T03:12:59.523Z,16.66
2022-09-12T03:15:54.324Z,16.67
2022-09-12T03:18:56.287Z,16.52
2022-09-12T03:22:01.461Z,15.46
2022-09-12T03:25:02.009Z,14.37
2022-09-12T03:28:06.210Z,14.11
2022-09-12T03:30:59.713Z,15.15
2022-09-12T03:33:52.148Z,15.81
2022-09-12T03:36:44.357Z,16.11
2022-09-12T03:39:36.679Z,16.38
2022-09-12T03:42:28.933Z,16.58
2022-09-12T03:45:21.363Z,16.63
2022-09-12T03:48:13.710Z,16.67
2022-09-12T03:51:08.106Z,16.77
2022-09-12T03:54:00.284Z,16.47
2022-09-12T03:56:52.712Z,15.29
2022-09-12T03:59:45.143Z,14.23
2022-09-12T04:02:17.588Z,13.91
2022-09-12T04:05:10.554Z,14.90
2022-09-12T04:08:03.193Z,15.63
2022-09-12T04:10:55.416Z,16.03
2022-09-12T04:13:48.694Z,16.21
2022-09-12T04:16:41.425Z,16.46
2022-09-12T04:19:33.650Z,16.69
2022-09-12T04:22:26.073Z,16.77
2022-09-12T04:25:18.714Z,16.41
2022-09-12T04:28:10.998Z,15.18
2022-09-12T04:31:07.107Z,14.52
2022-09-12T04:34:01.365Z,15.13
2022-09-12T04:36:53.571Z,15.55
2022-09-12T04:39:45.849Z,15.78
2022-09-12T04:42:38.121Z,15.93
2022-09-12T04:45:30.447Z,16.02
2022-09-12T04:48:21.710Z,16.19
2022-09-12T04:51:17.254Z,16.35
2022-09-12T04:54:01.745Z,16.39
2022-09-12T04:56:54.936Z,16.43
2022-09-12T04:59:47.358Z,16.44
2022-09-12T05:02:40.046Z,16.56
2022-09-12T05:05:32.443Z,16.68
2022-09-12T05:08:15.722Z,16.72
2022-09-12T05:11:09.940Z,16.78
2022-09-12T05:14:02.149Z,16.52
2022-09-12T05:16:56.444Z,15.42
2022-09-12T05:19:49.568Z,14.45
2022-09-12T05:22:41.958Z,14.14
2022-09-12T05:25:34.255Z,15.04
2022-09-12T05:28:30.452Z,15.75
2022-09-12T05:31:23.867Z,16.13
2022-09-12T05:34:16.268Z,16.37
2022-09-12T05:37:08.750Z,16.53
2022-09-12T05:40:01.605Z,16.60
2022-09-12T05:42:54.950Z,16.70
2022-09-12T05:45:30.767Z,16.64
2022-09-12T05:48:26.700Z,16.67
2022-09-12T05:51:04.956Z,16.84
2022-09-12T05:53:51.707Z,16.82
2022-09-12T05:56:39.437Z,16.73
2022-09-12T05:59:31.489Z,15.76
2022-09-12T06:02:23.707Z,14.84
2022-09-12T06:05:15.988Z,14.48
2022-09-12T06:08:07.220Z,15.32
2022-09-12T06:11:03.529Z,16.15
2022-09-12T06:13:56.924Z,16.55
2022-09-12T06:16:33.373Z,16.70
2022-09-12T06:19:27.651Z,16.91
2022-09-12T06:22:20.020Z,16.94
2022-09-12T06:25:12.517Z,15.98
2022-09-12T06:28:05.244Z,15.04
2022-09-12T06:31:02.440Z,14.72
2022-09-12T06:33:47.971Z,15.72
2022-09-12T06:36:42.152Z,16.54
2022-09-12T06:39:36.811Z,16.93
2022-09-12T06:42:20.115Z,17.20
2022-09-12T06:45:14.310Z,17.04
2022-09-12T06:48:06.843Z,15.99
2022-09-12T06:51:00.078Z,15.13
2022-09-12T06:53:52.487Z,14.48
2022-09-12T06:56:45.225Z,14.48
2022-09-12T06:59:37.461Z,15.61
2022-09-12T07:02:29.842Z,16.48
2022-09-12T07:05:22.219Z,16.97
2022-09-12T07:08:14.411Z,17.31
2022-09-12T07:11:13.928Z,17.19
2022-09-12T07:14:07.499Z,16.16
2022-09-12T07:16:59.779Z,15.29
2022-09-12T07:19:52.060Z,14.72
2022-09-12T07:22:44.256Z,14.79
2022-09-12T07:25:36.589Z,15.88
2022-09-12T07:28:30.290Z,16.66
2022-09-12T07:31:23.614Z,17.23
2022-09-12T07:34:16.025Z,17.28
2022-09-12T07:37:08.947Z,16.50
2022-09-12T07:40:02.368Z,15.82
2022-09-12T07:42:55.197Z,15.35
2022-09-12T07:45:47.798Z,15.46
2022-09-12T07:48:41.060Z,16.67
2022-09-12T07:51:34.127Z,17.45
2022-09-12T07:54:19.965Z,17.62
2022-09-12T07:57:11.972Z,16.73
2022-09-12T08:00:04.962Z,15.88
2022-09-12T08:02:57.851Z,15.22
2022-09-12T08:05:49.985Z,15.18
2022-09-12T08:08:31.886Z,16.44
2022-09-12T08:11:25.407Z,17.45
2022-09-12T08:14:18.415Z,17.68
2022-09-12T08:17:10.659Z,16.79
2022-09-12T08:19:42.461Z,16.06
2022-09-12T08:22:25.917Z,15.50
2022-09-12T08:25:01.129Z,15.38
2022-09-12T08:27:53.351Z,16.66
2022-09-12T08:30:45.484Z,17.63
2022-09-12T08:33:37.977Z,17.88
2022-09-12T08:36:30.666Z,16.99
2022-09-12T08:39:23.136Z,16.03
2022-09-12T08:42:26.774Z,15.38
2022-09-12T08:45:22.239Z,15.30
2022-09-12T08:48:15.539Z,16.46
2022-09-12T08:51:01.444Z,17.45
2022-09-12T08:53:56.976Z,17.81
2022-09-12T08:56:49.457Z,16.99
2022-09-12T08:59:44.883Z,16.25
2022-09-12T09:03:14.921Z,15.81
2022-09-12T09:06:15.956Z,15.44
2022-09-12T09:09:17.449Z,15.67
2022-09-12T09:12:20.816Z,17.15
2022-09-12T09:15:25.494Z,18.08
2022-09-12T09:18:23.784Z,18.16
2022-09-12T09:21:24.718Z,17.20
2022-09-12T09:24:23.133Z,16.31
2022-09-12T09:27:40.092Z,15.58
2022-09-12T09:30:24.005Z,15.52
2022-09-12T09:33:24.273Z,16.68
2022-09-12T09:36:22.632Z,17.59
2022-09-12T09:39:22.080Z,18.17
2022-09-12T09:42:25.652Z,18.51
2022-09-12T09:45:20.729Z,18.45
2022-09-12T09:48:20.176Z,17.47
2022-09-12T09:51:13.035Z,16.58
2022-09-12T09:54:01.862Z,16.02
2022-09-12T09:56:54.267Z,15.99
2022-09-12T09:59:46.353Z,17.26
2022-09-12T10:02:41.669Z,18.25
2022-09-12T10:05:24.014Z,18.79
2022-09-12T10:08:23.369Z,18.93
2022-09-12T10:11:23.325Z,18.01
2022-09-12T10:14:35.193Z,17.15
2022-09-12T10:17:34.126Z,16.48
2022-09-12T10:20:36.034Z,15.99
2022-09-12T10:23:33.404Z,15.98
2022-09-12T10:26:22.837Z,17.19
2022-09-12T10:29:19.922Z,18.15
2022-09-12T10:32:12.837Z,18.74
2022-09-12T10:35:09.236Z,18.65
2022-09-12T10:37:59.626Z,17.68
2022-09-12T10:41:00.380Z,16.74
2022-09-12T10:43:52.863Z,16.39
2022-09-12T10:46:38.070Z,17.26
2022-09-12T10:49:38.154Z,17.95
2022-09-12T10:52:24.785Z,18.41
2022-09-12T10:54:59.588Z,18.79
2022-09-12T10:57:56.251Z,19.09
2022-09-12T11:00:54.697Z,19.00
2022-09-12T11:03:54.603Z,17.96
2022-09-12T11:06:55.354Z,16.93
2022-09-12T11:09:56.021Z,16.68
2022-09-12T11:12:44.756Z,17.60
2022-09-12T11:15:44.698Z,18.12
2022-09-12T11:18:51.872Z,18.51
2022-09-12T11:21:49.606Z,18.74
2022-09-12T11:24:59.820Z,18.82
2022-09-12T11:28:00.306Z,18.97
2022-09-12T11:30:39.112Z,19.12
2022-09-12T11:33:43.157Z,19.25
2022-09-12T11:36:40.622Z,19.29
2022-09-12T11:39:40.433Z,18.84
2022-09-12T11:42:36.507Z,17.53
2022-09-12T11:45:33.447Z,16.94
2022-09-12T11:48:28.747Z,17.75
2022-09-12T11:51:25.835Z,18.43
2022-09-12T11:54:26.176Z,18.74
2022-09-12T11:57:24.703Z,18.87
2022-09-12T12:00:21.112Z,18.99
2022-09-12T12:03:21.696Z,19.03
2022-09-12T12:06:08.142Z,19.05
2022-09-12T12:09:00.842Z,19.15
2022-09-12T12:12:06.699Z,18.89
2022-09-12T12:15:02.217Z,17.77
2022-09-12T12:18:06.386Z,16.79
2022-09-12T12:21:18.823Z,16.48
2022-09-12T12:24:20.282Z,17.35
2022-09-12T12:27:03.774Z,17.93
2022-09-12T12:29:46.089Z,18.32
2022-09-12T12:32:38.204Z,18.57
2022-09-12T12:35:43.977Z,18.77
2022-09-12T12:38:40.900Z,18.88
2022-09-12T12:41:48.500Z,18.92
2022-09-12T12:44:53.186Z,19.09
2022-09-12T12:47:45.815Z,18.80
2022-09-12T12:50:28.090Z,17.70
2022-09-12T12:53:27.781Z,16.64
2022-09-12T12:56:40.394Z,16.25
2022-09-12T12:59:24.756Z,17.07
2022-09-12T13:02:24.027Z,17.73
2022-09-12T13:05:24.287Z,18.07
2022-09-12T13:08:31.824Z,18.32
2022-09-12T13:11:34.723Z,18.52
2022-09-12T13:14:38.861Z,18.54
2022-09-12T13:17:39.233Z,18.44
2022-09-12T13:20:34.616Z,18.34
2022-09-12T13:23:29.467Z,18.20
2022-09-12T13:26:02.903Z,18.21
2022-09-12T13:29:11.889Z,18.21
2022-09-12T13:32:04.640Z,18.27
2022-09-12T13:35:09.376Z,18.40
2022-09-12T13:38:08.661Z,18.48
2022-09-12T13:41:08.841Z,18.50
2022-09-12T13:43:56.806Z,18.50
2022-09-12T13:46:50.212Z,18.55
2022-09-12T13:49:44.177Z,18.69
2022-09-12T13:52:39.184Z,18.85
2022-09-12T13:55:35.659Z,18.96
2022-09-12T13:58:23.386Z,19.01
2022-09-12T14:01:17.446Z,18.98
2022-09-12T14:04:18.164Z,18.97
2022-09-12T14:07:01.188Z,18.98
2022-09-12T14:09:59.418Z,19.05
2022-09-12T14:12:51.981Z,19.08
2022-09-12T14:15:48.426Z,18.94
2022-09-12T14:18:45.222Z,18.83
2022-09-12T14:21:39.745Z,18.86
2022-09-12T14:24:32.397Z,18.86
2022-09-12T14:27:08.508Z,18.78
2022-09-12T14:29:55.974Z,18.72
2022-09-12T14:33:02.951Z,18.76
2022-09-12T14:36:11.438Z,18.86
2022-09-12T14:39:07.579Z,18.86
2022-09-12T14:42:07.549Z,18.84
2022-09-12T14:44:44.664Z,18.80
2022-09-12T14:47:25.632Z,18.82
2022-09-12T14:50:00.643Z,18.86
2022-09-12T14:52:45.652Z,18.84
2022-09-12T14:55:46.451Z,18.86
2022-09-12T14:58:39.717Z,18.92
2022-09-12T15:01:30.200Z,18.88
2022-09-12T15:04:42.278Z,18.32
2022-09-12T15:07:36.888Z,17.15
2022-09-12T15:10:32.395Z,16.60
2022-09-12T15:13:19.793Z,16.96
2022-09-12T15:16:12.886Z,17.38
2022-09-12T15:19:05.175Z,17.76
2022-09-12T15:21:57.568Z,17.95
2022-09-12T15:24:49.728Z,18.03
2022-09-12T15:27:42.479Z,18.07
2022-09-12T15:30:34.575Z,18.15
2022-09-12T15:33:27.855Z,18.33
2022-09-12T15:36:21.796Z,18.48
2022-09-12T15:39:13.872Z,18.66
2022-09-12T15:42:06.367Z,18.79
2022-09-12T15:45:02.526Z,18.81
2022-09-12T15:47:55.010Z,18.80
2022-09-12T15:50:47.351Z,18.85
2022-09-12T15:53:40.349Z,18.88
2022-09-12T15:56:32.021Z,18.98
2022-09-12T15:59:24.057Z,18.96
2022-09-12T16:02:19.345Z,19.02
2022-09-12T16:05:17.093Z,19.09
2022-09-12T16:08:09.664Z,19.20
2022-09-12T16:11:05.600Z,19.29
2022-09-12T16:13:58.028Z,19.38
2022-09-12T16:16:57.124Z,19.53
2022-09-12T16:19:49.060Z,19.35
2022-09-12T16:22:41.606Z,18.37
2022-09-12T16:25:34.149Z,17.49
2022-09-12T16:28:26.119Z,17.10
2022-09-12T16:31:18.260Z,17.93
2022-09-12T16:34:11.606Z,18.60
2022-09-12T16:37:03.923Z,18.97
2022-09-12T16:39:55.986Z,19.22
2022-09-12T16:42:47.942Z,19.42
2022-09-12T16:45:28.369Z,19.55
2022-09-12T16:48:20.357Z,19.67
2022-09-12T16:51:03.828Z,19.52
2022-09-12T16:53:57.461Z,18.55
2022-09-12T16:56:29.300Z,17.67
2022-09-12T16:59:21.310Z,17.23
2022-09-12T17:02:15.008Z,17.98
2022-09-12T17:05:00.824Z,18.53
2022-09-12T17:07:52.812Z,18.82
2022-09-12T17:10:45.059Z,18.99
2022-09-12T17:14:03.409Z,19.14
2022-09-12T17:16:53.256Z,19.27
2022-09-12T17:19:45.399Z,19.33
2022-09-12T17:22:37.480Z,19.33
2022-09-12T17:25:19.460Z,19.32
2022-09-12T17:28:00.641Z,19.40
2022-09-12T17:30:43.608Z,19.49
2022-09-12T17:33:19.732Z,19.53
2022-09-12T17:36:05.514Z,19.59
2022-09-12T17:38:58.120Z,19.68
2022-09-12T17:41:52.305Z,19.81
2022-09-12T17:44:36.288Z,19.65
2022-09-12T17:47:29.261Z,18.66
2022-09-12T17:50:31.623Z,17.69
2022-09-12T17:53:25.706Z,17.27
2022-09-12T17:56:20.391Z,18.02
2022-09-12T17:59:21.659Z,18.51
2022-09-12T18:02:16.135Z,18.74
2022-09-12T18:05:10.759Z,18.78
2022-09-12T18:08:03.448Z,18.91
2022-09-12T18:10:56.015Z,18.91
2022-09-12T18:13:48.663Z,18.87
2022-09-12T18:16:21.037Z,18.81
2022-09-12T18:19:03.562Z,18.83
2022-09-12T18:21:56.440Z,18.87
2022-09-12T18:24:48.884Z,18.95
2022-09-12T18:27:41.362Z,18.96
2022-09-12T18:30:34.082Z,18.98
2022-09-12T18:33:26.342Z,19.07
2022-09-12T18:36:06.213Z,19.16
2022-09-12T18:38:41.921Z,19.24
2022-09-12T18:41:34.351Z,19.20
2022-09-12T18:44:16.477Z,19.20
2022-09-12T18:47:10.044Z,19.27
2022-09-12T18:50:01.700Z,19.30
2022-09-12T18:52:59.609Z,19.33
2022-09-12T18:55:52.315Z,19.25
2022-09-12T18:58:34.235Z,19.24
2022-09-12T19:01:19.797Z,19.25
2022-09-12T19:04:13.190Z,19.27
2022-09-12T19:07:05.891Z,19.34
2022-09-12T19:09:49.727Z,19.37
2022-09-12T19:12:42.763Z,19.37
2022-09-12T19:15:22.175Z,19.37
2022-09-12T19:17:54.278Z,19.30
2022-09-12T19:20:51.272Z,19.22
2022-09-12T19:23:43.608Z,19.17
2022-09-12T19:26:37.823Z,19.12
2022-09-12T19:29:30.317Z,19.02
2022-09-12T19:32:22.539Z,18.94
2022-09-12T19:35:14.461Z,18.86
2022-09-12T19:38:07.006Z,18.91
2022-09-12T19:41:00.325Z,18.90
2022-09-12T19:43:52.526Z,18.82
2022-09-12T19:46:44.729Z,18.81
2022-09-12T19:49:39.535Z,18.84
2022-09-12T19:52:31.618Z,18.70
2022-09-12T19:55:23.896Z,18.71
2022-09-12T19:58:16.041Z,18.77
2022-09-12T20:01:12.636Z,18.79
2022-09-12T20:04:05.450Z,18.78
2022-09-12T20:06:57.092Z,18.75
2022-09-12T20:09:49.316Z,18.75
2022-09-12T20:12:41.588Z,18.85
2022-09-12T20:15:34.669Z,18.99
2022-09-12T20:18:20.682Z,18.94
2022-09-12T20:21:15.157Z,18.84
2022-09-12T20:24:11.089Z,18.85
2022-09-12T20:27:03.129Z,18.93
2022-09-12T20:29:56.597Z,18.94
2022-09-12T20:32:48.687Z,18.88
2022-09-12T20:35:30.852Z,18.90
2022-09-12T20:38:23.062Z,18.88
2022-09-12T20:41:15.234Z,18.86
2022-09-12T20:43:58.834Z,18.87
2022-09-12T20:46:50.972Z,18.91
2022-09-12T20:49:43.638Z,18.86
2022-09-12T20:52:35.682Z,18.80
2022-09-12T20:55:27.700Z,18.78
2022-09-12T20:58:20.397Z,18.87
2022-09-12T21:01:13.937Z,18.90
2022-09-12T21:04:07.027Z,18.78
2022-09-12T21:07:01.260Z,18.53
2022-09-12T21:09:54.367Z,18.43
2022-09-12T21:12:46.360Z,18.44
2022-09-12T21:15:41.248Z,18.46
2022-09-12T21:18:34.376Z,18.48
2022-09-12T21:21:27.261Z,18.77
2022-09-12T21:24:19.457Z,18.84
2022-09-12T21:27:11.888Z,18.70
2022-09-12T21:29:57.521Z,18.64
2022-09-12T21:32:49.467Z,18.75
2022-09-12T21:35:41.480Z,18.87
2022-09-12T21:38:33.863Z,19.08
2022-09-12T21:41:24.559Z,18.94
2022-09-12T21:44:16.713Z,17.87
2022-09-12T21:47:09.332Z,16.88
2022-09-12T21:50:01.466Z,16.43
2022-09-12T21:52:53.691Z,16.99
2022-09-12T21:55:45.689Z,17.56
2022-09-12T21:58:39.327Z,18.03
2022-09-12T22:01:31.542Z,18.29
2022-09-12T22:04:25.223Z,18.52
2022-09-12T22:07:17.790Z,18.65
2022-09-12T22:10:11.241Z,18.63
2022-09-12T22:13:03.323Z,18.47
2022-09-12T22:15:55.414Z,18.39
2022-09-12T22:18:48.059Z,18.34
2022-09-12T22:22:00.160Z,18.27
2022-09-12T22:24:53.562Z,18.10
2022-09-12T22:27:44.025Z,17.94
2022-09-12T22:30:36.089Z,18.17
2022-09-12T22:33:29.157Z,18.35
2022-09-12T22:36:21.118Z,18.39
2022-09-12T22:39:13.435Z,18.38
2022-09-12T22:42:05.703Z,18.45
2022-09-12T22:44:57.820Z,18.50
2022-09-12T22:47:49.943Z,18.47
2022-09-12T22:50:42.579Z,18.42
2022-09-12T22:53:34.968Z,18.43
2022-09-12T22:56:28.660Z,18.47
2022-09-12T22:59:20.738Z,18.50
2022-09-12T23:02:12.734Z,18.58
2022-09-12T23:05:05.028Z,18.72
2022-09-12T23:07:57.221Z,18.82
2022-09-12T23:10:50.858Z,18.95
2022-09-12T23:13:45.390Z,19.04
2022-09-12T23:16:37.356Z,19.03
2022-09-12T23:19:29.436Z,19.09
2022-09-12T23:22:21.398Z,19.13
2022-09-12T23:25:02.087Z,18.94
2022-09-12T23:27:54.587Z,17.84
2022-09-12T23:30:46.578Z,16.79
2022-09-12T23:33:39.020Z,16.37
2022-09-12T23:36:31.464Z,17.28
2022-09-12T23:39:22.299Z,17.98
2022-09-12T23:42:16.413Z,18.29
2022-09-12T23:45:10.393Z,18.55
2022-09-12T23:48:02.505Z,18.69
2022-09-12T23:50:54.923Z,18.54
2022-09-12T23:53:46.904Z,18.60
2022-09-12T23:56:38.935Z,18.71
2022-09-12T23:59:31.789Z,18.67
